Time;durP1;ratioP1;P1;durP2;ratioP2;P2;SDS_P1;SDS_P2;PMS_P1;PMS_P2;Temp;Humidity;BMP_temperature;BMP_pressure;BME280_temperature;BME280_humidity;BME280_pressure;Samples;Min_cycle;Max_cycle;Signal;HPM_P1;HPM_P2
2023/06/27 00:02:02;;;;;;;;;;;19.10;59.80;;;;;;5075266;28;19909;-29
2023/06/27 00:04:28;;;;;;;;;;;19.10;59.90;;;;;;5075266;28;19969;-28
2023/06/27 00:06:53;;;;;;;;;;;19.10;60.00;;;;;;5075132;28;19991;-30
2023/06/27 00:09:19;;;;;;;;;;;19.10;60.10;;;;;;5075130;28;20001;-35
2023/06/27 00:11:44;;;;;;;;;;;19.10;60.20;;;;;;5075204;28;19999;-28
2023/06/27 00:14:10;;;;;;;;;;;19.10;60.30;;;;;;5074926;28;20407;-29
2023/06/27 00:16:36;;;;;;;;;;;19.10;60.30;;;;;;5075349;28;19912;-28
2023/06/27 00:19:02;;;;;;;;;;;19.10;60.40;;;;;;5075011;28;20300;-29
2023/06/27 00:21:29;;;;;;;;;;;19.00;60.50;;;;;;5074899;28;19916;-27
2023/06/27 00:23:56;;;;;;;;;;;19.00;60.60;;;;;;5074994;28;19919;-28
2023/06/27 00:26:21;;;;;;;;;;;19.00;60.70;;;;;;5074773;28;20362;-28
2023/06/27 00:28:47;;;;;;;;;;;19.00;60.80;;;;;;5074773;28;19958;-32
2023/06/27 00:31:12;;;;;;;;;;;19.10;60.80;;;;;;5074774;28;19909;-30
2023/06/27 00:33:38;;;;;;;;;;;19.10;60.70;;;;;;5074635;28;19913;-29
2023/06/27 00:36:05;;;;;;;;;;;19.00;60.80;;;;;;5074629;28;19909;-27
2023/06/27 00:38:31;;;;;;;;;;;19.00;60.80;;;;;;5074583;28;19915;-30
2023/06/27 00:40:57;;;;;;;;;;;19.10;60.90;;;;;;5074614;28;19915;-29
2023/06/27 00:43:23;;;;;;;;;;;19.10;61.00;;;;;;5074608;28;19909;-30
2023/06/27 00:45:49;;;;;;;;;;;19.20;61.00;;;;;;5074528;28;20280;-31
2023/06/27 00:48:14;;;;;;;;;;;19.20;61.10;;;;;;5056438;28;19919;-30
2023/06/27 00:50:40;;;;;;;;;;;19.20;61.10;;;;;;5074434;28;19908;-39
2023/06/27 00:53:05;;;;;;;;;;;19.20;61.10;;;;;;5074292;28;20026;-28
2023/06/27 00:55:32;;;;;;;;;;;19.20;61.20;;;;;;5074387;28;19955;-31
2023/06/27 00:57:58;;;;;;;;;;;19.30;61.20;;;;;;5056517;28;19999;-32
2023/06/27 01:00:24;;;;;;;;;;;19.30;61.30;;;;;;5074263;28;19947;-31
2023/06/27 01:02:49;;;;;;;;;;;19.30;61.30;;;;;;5074210;28;20378;-29
2023/06/27 01:05:15;;;;;;;;;;;19.30;61.30;;;;;;5074055;28;19970;-30
2023/06/27 01:07:46;;;;;;;;;;;19.30;61.40;;;;;;5073993;28;19914;-30
2023/06/27 01:10:34;;;;;;;;;;;19.30;61.40;;;;;;5074392;28;20368;-32
2023/06/27 01:13:22;;;;;;;;;;;19.30;61.50;;;;;;5073909;28;20265;-28
2023/06/27 01:15:48;;;;;;;;;;;19.30;61.50;;;;;;5073800;28;19951;-29
2023/06/27 01:18:15;;;;;;;;;;;19.30;61.60;;;;;;5055666;28;20027;-31
2023/06/27 01:20:43;;;;;;;;;;;19.30;61.60;;;;;;5073815;28;19908;-28
2023/06/27 01:23:15;;;;;;;;;;;19.30;61.70;;;;;;5073600;28;19958;-27
2023/06/27 01:25:40;;;;;;;;;;;19.30;61.80;;;;;;5073667;28;20334;-28
2023/06/27 01:28:07;;;;;;;;;;;19.30;62.00;;;;;;5073392;28;19935;-30
2023/06/27 01:30:34;;;;;;;;;;;19.20;62.10;;;;;;5073549;28;19912;-29
2023/06/27 01:33:03;;;;;;;;;;;19.20;62.20;;;;;;5073330;28;19919;-28
2023/06/27 01:35:38;;;;;;;;;;;19.20;62.30;;;;;;5073754;28;19913;-27
2023/06/27 01:38:13;;;;;;;;;;;19.20;62.30;;;;;;5073701;28;20404;-29
2023/06/27 01:40:39;;;;;;;;;;;19.20;62.40;;;;;;5073393;28;19915;-29
2023/06/27 01:43:09;;;;;;;;;;;19.10;62.40;;;;;;5073296;28;19909;-28
2023/06/27 01:45:36;;;;;;;;;;;19.10;62.60;;;;;;5073325;28;20053;-35
2023/06/27 01:48:01;;;;;;;;;;;19.10;62.70;;;;;;5073320;28;19908;-29
2023/06/27 01:50:27;;;;;;;;;;;19.00;62.80;;;;;;5055230;28;20272;-28
2023/06/27 01:52:53;;;;;;;;;;;19.00;63.00;;;;;;5072978;28;19934;-29
2023/06/27 01:55:18;;;;;;;;;;;19.00;62.90;;;;;;5073154;28;20368;-30
2023/06/27 01:57:44;;;;;;;;;;;19.00;62.90;;;;;;5073164;28;20005;-29
2023/06/27 02:00:10;;;;;;;;;;;19.00;62.90;;;;;;5073100;28;20370;-27
2023/06/27 02:02:36;;;;;;;;;;;19.00;62.90;;;;;;5072930;28;19916;-28
2023/06/27 02:05:02;;;;;;;;;;;19.00;63.00;;;;;;5073034;28;19908;-29
2023/06/27 02:07:27;;;;;;;;;;;19.00;62.90;;;;;;5073046;28;19958;-29
2023/06/27 02:09:53;;;;;;;;;;;19.00;62.90;;;;;;5073138;28;20220;-28
2023/06/27 02:12:18;;;;;;;;;;;19.10;63.00;;;;;;5072709;28;19948;-30
2023/06/27 02:14:44;;;;;;;;;;;19.10;63.00;;;;;;5073454;28;19909;-30
2023/06/27 02:17:10;;;;;;;;;;;19.10;63.00;;;;;;5072883;28;19915;-30
2023/06/27 02:19:35;;;;;;;;;;;19.10;63.00;;;;;;5072246;28;19931;-29
2023/06/27 02:22:01;;;;;;;;;;;19.10;63.10;;;;;;5054659;28;19991;-28
2023/06/27 02:24:26;;;;;;;;;;;19.10;63.10;;;;;;5072602;28;19909;-31
2023/06/27 02:26:52;;;;;;;;;;;19.00;63.20;;;;;;5072386;28;19924;-30
2023/06/27 02:29:17;;;;;;;;;;;19.00;63.30;;;;;;5072644;28;19923;-27
2023/06/27 02:31:43;;;;;;;;;;;19.00;63.50;;;;;;5072538;28;20383;-30
2023/06/27 02:34:08;;;;;;;;;;;18.90;63.50;;;;;;5072588;28;19912;-29
2023/06/27 02:36:34;;;;;;;;;;;18.90;63.70;;;;;;5072452;28;20395;-36
2023/06/27 02:39:00;;;;;;;;;;;18.80;63.80;;;;;;5072339;28;20047;-27
2023/06/27 02:41:25;;;;;;;;;;;18.70;64.00;;;;;;5072417;28;19932;-33
2023/06/27 02:43:51;;;;;;;;;;;18.70;64.30;;;;;;5072405;28;19908;-31
2023/06/27 02:46:17;;;;;;;;;;;18.70;64.40;;;;;;5072287;28;20003;-31
2023/06/27 02:48:42;;;;;;;;;;;18.60;64.50;;;;;;5072297;28;19920;-29
2023/06/27 02:51:08;;;;;;;;;;;18.60;64.80;;;;;;5072157;28;19909;-28
2023/06/27 02:53:33;;;;;;;;;;;18.50;64.60;;;;;;5072253;28;19919;-27
2023/06/27 02:56:02;;;;;;;;;;;18.50;64.70;;;;;;5072209;28;20356;-29
2023/06/27 02:58:28;;;;;;;;;;;18.50;64.80;;;;;;5072464;28;20283;-28
2023/06/27 03:00:54;;;;;;;;;;;18.50;64.90;;;;;;5072316;28;19915;-27
2023/06/27 03:03:19;;;;;;;;;;;18.40;64.90;;;;;;5071966;28;20007;-27
2023/06/27 03:05:45;;;;;;;;;;;18.40;65.00;;;;;;5054053;28;19995;-31
2023/06/27 03:08:10;;;;;;;;;;;18.40;65.00;;;;;;5072004;28;19953;-34
2023/06/27 03:10:36;;;;;;;;;;;18.40;65.10;;;;;;5072328;28;19943;-27
2023/06/27 03:13:01;;;;;;;;;;;18.40;65.10;;;;;;5072198;28;19912;-27
2023/06/27 03:15:27;;;;;;;;;;;18.30;65.10;;;;;;5071967;28;19915;-28
2023/06/27 03:17:52;;;;;;;;;;;18.30;65.20;;;;;;5072066;28;20399;-35
2023/06/27 03:20:18;;;;;;;;;;;18.30;65.30;;;;;;5071890;28;19975;-30
2023/06/27 03:22:43;;;;;;;;;;;18.20;65.50;;;;;;5072199;28;19970;-36
2023/06/27 03:25:10;;;;;;;;;;;18.20;65.60;;;;;;5071937;28;19916;-29
2023/06/27 03:27:35;;;;;;;;;;;18.20;65.70;;;;;;5071808;28;20136;-28
2023/06/27 03:30:01;;;;;;;;;;;18.10;65.70;;;;;;5071643;28;19995;-28
2023/06/27 03:32:27;;;;;;;;;;;18.10;65.80;;;;;;5075858;28;19962;-30
2023/06/27 03:34:52;;;;;;;;;;;18.10;66.10;;;;;;5075901;28;19908;-27
2023/06/27 03:37:19;;;;;;;;;;;18.00;66.20;;;;;;5075943;28;19954;-30
2023/06/27 03:39:45;;;;;;;;;;;18.00;66.40;;;;;;5076050;28;20248;-28
2023/06/27 03:42:11;;;;;;;;;;;17.90;66.50;;;;;;5075920;28;19909;-28
2023/06/27 03:44:36;;;;;;;;;;;17.90;66.50;;;;;;5076027;28;19934;-29
2023/06/27 03:47:02;;;;;;;;;;;17.90;66.50;;;;;;5075579;28;20441;-33
2023/06/27 03:49:28;;;;;;;;;;;17.90;66.50;;;;;;5075939;28;19908;-29
2023/06/27 03:51:53;;;;;;;;;;;17.90;66.50;;;;;;5075388;28;19947;-28
2023/06/27 03:54:19;;;;;;;;;;;18.00;66.50;;;;;;5075396;28;19913;-30
2023/06/27 03:56:44;;;;;;;;;;;18.00;66.50;;;;;;5075496;28;19908;-28
2023/06/27 03:59:09;;;;;;;;;;;18.00;66.40;;;;;;5075660;28;19908;-34
2023/06/27 04:01:35;;;;;;;;;;;18.10;66.40;;;;;;5075639;28;19909;-28
2023/06/27 04:04:00;;;;;;;;;;;18.20;66.50;;;;;;5075156;28;19908;-33
2023/06/27 04:06:26;;;;;;;;;;;18.20;66.40;;;;;;5075314;28;19934;-29
2023/06/27 04:08:51;;;;;;;;;;;18.30;66.40;;;;;;5075211;28;19958;-29
2023/06/27 04:11:17;;;;;;;;;;;18.30;66.40;;;;;;5075487;28;19908;-29
2023/06/27 04:13:42;;;;;;;;;;;18.30;66.40;;;;;;5075197;28;19912;-29
2023/06/27 04:16:08;;;;;;;;;;;18.30;66.30;;;;;;5075048;28;19916;-31
2023/06/27 04:18:33;;;;;;;;;;;18.40;66.30;;;;;;5075032;28;19908;-27
2023/06/27 04:20:59;;;;;;;;;;;18.50;66.30;;;;;;5074915;28;20283;-27
2023/06/27 04:23:24;;;;;;;;;;;18.50;66.30;;;;;;5075150;28;19950;-28
2023/06/27 04:26:04;;;;;;;;;;;18.50;66.30;;;;;;5074879;28;20360;-28
2023/06/27 04:28:31;;;;;;;;;;;18.50;66.20;;;;;;5073678;28;19932;-27
2023/06/27 04:30:57;;;;;;;;;;;18.50;66.50;;;;;;5073640;28;19919;-27
2023/06/27 04:33:23;;;;;;;;;;;18.50;66.60;;;;;;5073719;28;20007;-30
2023/06/27 04:35:48;;;;;;;;;;;18.50;66.60;;;;;;5073422;28;19946;-34
2023/06/27 04:38:14;;;;;;;;;;;18.50;66.70;;;;;;5073573;28;20284;-28
2023/06/27 04:40:41;;;;;;;;;;;18.50;66.80;;;;;;5073591;28;19957;-30
2023/06/27 04:43:07;;;;;;;;;;;18.60;66.90;;;;;;5073275;28;20271;-26
2023/06/27 04:45:32;;;;;;;;;;;18.60;66.80;;;;;;5073347;28;19909;-31
2023/06/27 04:47:58;;;;;;;;;;;18.60;66.70;;;;;;5073357;28;19908;-27
2023/06/27 04:50:23;;;;;;;;;;;18.60;66.90;;;;;;5073483;28;19962;-28
2023/06/27 04:52:49;;;;;;;;;;;18.60;67.00;;;;;;5073181;28;20302;-28
2023/06/27 04:55:15;;;;;;;;;;;18.60;67.10;;;;;;5073680;28;19917;-27
2023/06/27 04:57:41;;;;;;;;;;;18.60;67.00;;;;;;5073531;28;20322;-28
2023/06/27 05:00:09;;;;;;;;;;;18.60;67.00;;;;;;5073259;28;19908;-28
2023/06/27 05:02:35;;;;;;;;;;;18.70;67.00;;;;;;5073069;28;19956;-30
2023/06/27 05:05:00;;;;;;;;;;;18.70;67.10;;;;;;5073160;28;19946;-31
2023/06/27 05:07:26;;;;;;;;;;;18.70;67.10;;;;;;5073185;28;20368;-28
2023/06/27 05:09:51;;;;;;;;;;;18.70;67.10;;;;;;5073018;28;20260;-28
2023/06/27 05:12:17;;;;;;;;;;;18.70;67.10;;;;;;5073190;28;19908;-27
2023/06/27 05:14:42;;;;;;;;;;;18.70;67.10;;;;;;5073032;28;19915;-39
2023/06/27 05:17:07;;;;;;;;;;;18.70;67.40;;;;;;5072915;28;19988;-26
2023/06/27 05:19:33;;;;;;;;;;;18.70;67.30;;;;;;5072732;28;20372;-29
2023/06/27 05:21:58;;;;;;;;;;;18.70;67.30;;;;;;5072841;28;19909;-32
2023/06/27 05:24:24;;;;;;;;;;;18.70;67.30;;;;;;5072775;28;19909;-28
2023/06/27 05:26:49;;;;;;;;;;;18.70;68.00;;;;;;4993126;28;1758719;-27
2023/06/27 05:29:15;;;;;;;;;;;18.70;67.50;;;;;;5073975;28;20372;-27
2023/06/27 05:31:40;;;;;;;;;;;18.70;67.40;;;;;;5073715;28;19913;-31
2023/06/27 05:34:06;;;;;;;;;;;18.70;67.40;;;;;;5073769;28;20380;-26
2023/06/27 05:36:32;;;;;;;;;;;18.80;67.50;;;;;;5073679;28;19955;-28
2023/06/27 05:38:57;;;;;;;;;;;18.80;67.40;;;;;;5073634;28;19919;-27
2023/06/27 05:41:23;;;;;;;;;;;18.80;67.30;;;;;;5073786;28;19920;-35
2023/06/27 05:43:48;;;;;;;;;;;18.90;67.40;;;;;;5073811;28;19912;-29
2023/06/27 05:46:14;;;;;;;;;;;18.80;67.70;;;;;;5073349;28;19999;-28
2023/06/27 05:48:39;;;;;;;;;;;18.80;67.80;;;;;;5073652;28;19920;-32
2023/06/27 05:51:05;;;;;;;;;;;18.80;67.70;;;;;;5073540;28;19912;-30
2023/06/27 05:53:30;;;;;;;;;;;18.90;67.70;;;;;;5072345;28;19916;-27
2023/06/27 05:55:56;;;;;;;;;;;18.90;67.70;;;;;;5073264;28;19932;-29
2023/06/27 05:58:21;;;;;;;;;;;18.90;67.60;;;;;;5055236;28;20323;-28
2023/06/27 06:00:47;;;;;;;;;;;18.90;67.70;;;;;;5073230;28;19913;-32
2023/06/27 06:03:13;;;;;;;;;;;18.90;67.70;;;;;;5072853;28;19920;-28
2023/06/27 06:05:38;;;;;;;;;;;19.00;67.90;;;;;;5073078;28;19969;-28
2023/06/27 06:08:04;;;;;;;;;;;19.00;67.90;;;;;;5073164;28;19919;-30
2023/06/27 06:10:29;;;;;;;;;;;18.90;68.00;;;;;;5072953;28;19920;-32
2023/06/27 06:12:55;;;;;;;;;;;18.90;68.10;;;;;;5072863;28;19924;-31
2023/06/27 06:15:20;;;;;;;;;;;18.90;68.40;;;;;;5072860;28;19912;-27
2023/06/27 06:17:46;;;;;;;;;;;18.90;68.50;;;;;;5054732;28;19917;-29
2023/06/27 06:20:11;;;;;;;;;;;18.90;68.50;;;;;;5072733;28;19917;-27
2023/06/27 06:22:37;;;;;;;;;;;18.90;68.50;;;;;;5072813;28;20430;-31
2023/06/27 06:25:03;;;;;;;;;;;18.90;68.40;;;;;;5072962;28;20033;-27
2023/06/27 06:27:28;;;;;;;;;;;18.90;68.30;;;;;;5072560;28;19920;-28
2023/06/27 06:29:54;;;;;;;;;;;19.00;68.40;;;;;;5072654;28;19913;-30
2023/06/27 06:32:19;;;;;;;;;;;19.00;69.00;;;;;;5072553;28;19913;-29
2023/06/27 06:34:45;;;;;;;;;;;19.00;68.80;;;;;;5072740;28;20016;-27
2023/06/27 06:37:10;;;;;;;;;;;19.00;68.90;;;;;;5072675;28;19912;-27
2023/06/27 06:39:36;;;;;;;;;;;19.10;68.80;;;;;;5072564;28;19916;-30
2023/06/27 06:42:02;;;;;;;;;;;19.10;69.00;;;;;;5072704;28;19913;-32
2023/06/27 06:44:27;;;;;;;;;;;19.10;68.90;;;;;;5072680;28;19920;-31
2023/06/27 06:46:53;;;;;;;;;;;19.20;68.90;;;;;;5072448;28;19912;-28
2023/06/27 06:49:19;;;;;;;;;;;19.30;69.10;;;;;;5072229;28;19918;-28
2023/06/27 06:51:44;;;;;;;;;;;19.30;69.20;;;;;;5072647;28;20007;-29
2023/06/27 06:54:10;;;;;;;;;;;19.30;69.20;;;;;;5072244;28;19916;-29
2023/06/27 06:56:35;;;;;;;;;;;19.40;69.60;;;;;;5054224;28;19912;-32
2023/06/27 06:59:02;;;;;;;;;;;19.40;69.70;;;;;;5072448;28;20342;-28
2023/06/27 07:01:28;;;;;;;;;;;19.50;69.30;;;;;;5072546;28;20452;-31
2023/06/27 07:03:54;;;;;;;;;;;19.50;69.10;;;;;;5072195;28;19999;-29
2023/06/27 07:06:19;;;;;;;;;;;19.60;69.30;;;;;;5053988;28;19952;-30
2023/06/27 07:08:45;;;;;;;;;;;19.60;69.50;;;;;;5072232;28;20412;-28
2023/06/27 07:11:10;;;;;;;;;;;19.70;69.30;;;;;;5072156;28;19912;-33
2023/06/27 07:13:36;;;;;;;;;;;19.70;68.70;;;;;;5072106;28;19974;-28
2023/06/27 07:16:01;;;;;;;;;;;19.80;68.40;;;;;;5071944;28;19917;-28
2023/06/27 07:18:27;;;;;;;;;;;19.80;68.10;;;;;;5072184;28;19919;-28
2023/06/27 07:20:52;;;;;;;;;;;19.90;67.90;;;;;;5072073;28;19920;-40
2023/06/27 07:23:18;;;;;;;;;;;20.00;67.50;;;;;;5072120;28;19913;-29
2023/06/27 07:25:43;;;;;;;;;;;20.00;67.20;;;;;;5072344;28;19913;-28
2023/06/27 07:28:09;;;;;;;;;;;20.10;67.00;;;;;;5071744;28;19921;-27
2023/06/27 07:30:35;;;;;;;;;;;20.20;66.80;;;;;;5072201;28;20371;-28
2023/06/27 07:33:00;;;;;;;;;;;20.30;66.50;;;;;;5072029;28;19916;-30
2023/06/27 07:35:28;;;;;;;;;;;20.40;66.30;;;;;;5071971;28;19912;-31
2023/06/27 07:37:54;;;;;;;;;;;20.50;66.00;;;;;;5072197;28;19913;-30
2023/06/27 07:40:20;;;;;;;;;;;20.60;65.80;;;;;;5071902;28;20376;-28
2023/06/27 07:42:45;;;;;;;;;;;20.70;65.50;;;;;;5071844;28;19913;-28
2023/06/27 07:45:11;;;;;;;;;;;20.80;65.10;;;;;;5071752;28;19912;-31
2023/06/27 07:47:36;;;;;;;;;;;20.90;64.50;;;;;;5072485;28;19952;-29
2023/06/27 07:50:02;;;;;;;;;;;21.00;64.50;;;;;;5071703;28;19966;-30
2023/06/27 07:52:28;;;;;;;;;;;21.00;63.20;;;;;;5071588;28;19912;-29
2023/06/27 07:54:53;;;;;;;;;;;21.00;62.90;;;;;;5072174;28;19920;-28
2023/06/27 07:57:19;;;;;;;;;;;21.10;62.50;;;;;;5071641;28;19929;-33
2023/06/27 07:59:44;;;;;;;;;;;21.20;62.00;;;;;;5071967;28;20253;-31
2023/06/27 08:02:10;;;;;;;;;;;21.20;61.50;;;;;;5071577;28;20014;-29
2023/06/27 08:04:35;;;;;;;;;;;21.30;60.90;;;;;;5071864;28;20314;-29
2023/06/27 08:07:01;;;;;;;;;;;21.30;60.60;;;;;;5071796;28;19920;-29
2023/06/27 08:09:26;;;;;;;;;;;21.30;60.90;;;;;;5071671;28;20050;-28
2023/06/27 08:11:51;;;;;;;;;;;21.40;60.80;;;;;;5071453;28;19919;-28
2023/06/27 08:14:17;;;;;;;;;;;21.40;60.10;;;;;;5071549;28;19917;-30
2023/06/27 08:16:43;;;;;;;;;;;21.40;60.00;;;;;;5072637;28;19996;-28
2023/06/27 08:19:08;;;;;;;;;;;21.50;59.80;;;;;;5075352;28;19913;-31
2023/06/27 08:21:34;;;;;;;;;;;21.50;59.80;;;;;;5075115;28;19912;-30
2023/06/27 08:23:59;;;;;;;;;;;21.50;59.70;;;;;;5075196;28;19913;-30
2023/06/27 08:26:25;;;;;;;;;;;21.60;59.60;;;;;;5075134;28;20390;-35
2023/06/27 08:28:50;;;;;;;;;;;21.60;59.40;;;;;;5074638;28;19920;-29
2023/06/27 08:31:16;;;;;;;;;;;21.70;59.40;;;;;;5075079;28;19917;-31
2023/06/27 08:33:42;;;;;;;;;;;21.70;58.50;;;;;;5074733;28;20269;-31
2023/06/27 08:36:07;;;;;;;;;;;21.80;58.70;;;;;;5074985;28;19919;-29
2023/06/27 08:38:33;;;;;;;;;;;21.80;58.70;;;;;;5056741;28;19912;-30
2023/06/27 08:41:00;;;;;;;;;;;21.90;58.60;;;;;;5074902;28;19991;-28
2023/06/27 08:43:25;;;;;;;;;;;21.90;58.20;;;;;;5074738;28;19912;-29
2023/06/27 08:45:55;;;;;;;;;;;21.90;58.00;;;;;;5074905;28;19914;-29
2023/06/27 08:48:20;;;;;;;;;;;22.00;58.10;;;;;;5074767;28;19919;-29
2023/06/27 08:50:50;;;;;;;;;;;22.00;57.70;;;;;;5074504;28;20372;-30
2023/06/27 08:53:19;;;;;;;;;;;22.10;57.70;;;;;;5074674;28;20463;-28
2023/06/27 08:55:51;;;;;;;;;;;22.10;57.70;;;;;;5074561;28;19916;-29
2023/06/27 08:58:18;;;;;;;;;;;22.10;57.60;;;;;;5074398;28;19916;-31
2023/06/27 09:00:47;;;;;;;;;;;22.10;57.20;;;;;;5074535;28;19913;-29
2023/06/27 09:03:12;;;;;;;;;;;22.10;57.20;;;;;;5074454;28;20383;-31
2023/06/27 09:05:38;;;;;;;;;;;22.20;57.40;;;;;;5074416;28;19912;-28
2023/06/27 09:08:04;;;;;;;;;;;22.10;57.50;;;;;;5073516;28;19912;-30
2023/06/27 09:10:30;;;;;;;;;;;22.10;57.20;;;;;;5074578;28;20249;-30
2023/06/27 09:12:56;;;;;;;;;;;22.20;57.40;;;;;;5074414;28;19916;-28
2023/06/27 09:15:21;;;;;;;;;;;22.20;57.50;;;;;;5074447;28;20424;-29
2023/06/27 09:17:47;;;;;;;;;;;22.10;57.50;;;;;;5074156;28;19919;-30
2023/06/27 09:20:15;;;;;;;;;;;22.10;56.60;;;;;;5074067;28;20379;-29
2023/06/27 09:22:41;;;;;;;;;;;22.00;55.50;;;;;;5073883;28;19913;-30
2023/06/27 09:25:11;;;;;;;;;;;21.90;55.90;;;;;;5073900;28;20398;-31
2023/06/27 09:27:36;;;;;;;;;;;21.80;55.00;;;;;;5073264;28;19929;-29
2023/06/27 09:30:02;;;;;;;;;;;21.70;54.50;;;;;;5073386;28;19919;-29
2023/06/27 09:32:28;;;;;;;;;;;21.60;55.10;;;;;;5073689;28;19959;-29
2023/06/27 09:34:54;;;;;;;;;;;21.60;55.20;;;;;;5073742;28;19959;-32
2023/06/27 09:37:20;;;;;;;;;;;21.60;56.20;;;;;;5073597;28;19913;-28
2023/06/27 09:39:45;;;;;;;;;;;21.70;55.40;;;;;;5073541;28;20114;-31
2023/06/27 09:42:11;;;;;;;;;;;21.70;55.70;;;;;;5073425;28;19999;-30
2023/06/27 09:44:36;;;;;;;;;;;21.70;55.80;;;;;;5073413;28;19913;-28
2023/06/27 09:47:03;;;;;;;;;;;21.80;55.70;;;;;;5073531;28;19999;-30
2023/06/27 09:49:29;;;;;;;;;;;21.80;54.30;;;;;;5073688;28;19917;-27
2023/06/27 09:51:55;;;;;;;;;;;21.90;54.30;;;;;;5073364;28;19936;-29
2023/06/27 09:54:22;;;;;;;;;;;21.90;54.40;;;;;;5073622;28;19917;-29
2023/06/27 09:56:49;;;;;;;;;;;21.90;53.70;;;;;;5073643;28;19912;-30
2023/06/27 09:59:15;;;;;;;;;;;21.90;52.80;;;;;;5073253;28;19920;-28
2023/06/27 10:01:41;;;;;;;;;;;21.90;52.60;;;;;;5073500;28;19919;-30
2023/06/27 10:04:07;;;;;;;;;;;21.80;53.30;;;;;;5066156;28;19992;-28
2023/06/27 10:06:33;;;;;;;;;;;21.90;53.70;;;;;;5073147;28;19913;-29
2023/06/27 10:08:59;;;;;;;;;;;21.90;52.80;;;;;;5072920;28;19912;-30
2023/06/27 10:11:25;;;;;;;;;;;22.00;52.90;;;;;;5073051;28;19935;-31
2023/06/27 10:13:50;;;;;;;;;;;22.00;53.10;;;;;;5072597;28;19999;-34
2023/06/27 10:16:16;;;;;;;;;;;22.10;53.10;;;;;;5072771;28;20340;-29
2023/06/27 10:18:42;;;;;;;;;;;22.20;53.00;;;;;;5073002;28;19912;-28
2023/06/27 10:21:08;;;;;;;;;;;22.40;52.40;;;;;;5073238;28;20015;-29
2023/06/27 10:23:34;;;;;;;;;;;22.50;52.20;;;;;;5072467;28;20279;-28
2023/06/27 10:26:00;;;;;;;;;;;22.60;52.30;;;;;;5072718;28;19978;-29
2023/06/27 10:28:28;;;;;;;;;;;22.70;51.70;;;;;;5072577;28;19921;-33
2023/06/27 10:30:53;;;;;;;;;;;22.70;51.30;;;;;;5072563;28;20323;-29
2023/06/27 10:33:28;;;;;;;;;;;22.70;51.00;;;;;;5072595;28;19917;-29
2023/06/27 10:35:57;;;;;;;;;;;22.70;51.50;;;;;;5072487;28;19960;-32
2023/06/27 10:38:22;;;;;;;;;;;22.70;51.70;;;;;;5072640;28;19913;-28
2023/06/27 10:41:05;;;;;;;;;;;22.80;51.50;;;;;;5072088;28;19935;-31
2023/06/27 10:43:45;;;;;;;;;;;22.70;51.50;;;;;;5072508;28;19970;-29
2023/06/27 10:46:18;;;;;;;;;;;22.70;51.40;;;;;;5072465;28;20257;-28
2023/06/27 10:48:48;;;;;;;;;;;22.70;51.40;;;;;;5072291;28;20300;-29
2023/06/27 10:51:17;;;;;;;;;;;22.70;51.50;;;;;;5072613;28;20010;-31
2023/06/27 10:53:46;;;;;;;;;;;22.80;51.50;;;;;;5072439;28;20334;-26
2023/06/27 10:56:27;;;;;;;;;;;22.90;51.40;;;;;;5072247;28;19919;-28
2023/06/27 10:58:58;;;;;;;;;;;22.90;51.00;;;;;;5072272;28;19965;-31
2023/06/27 11:01:24;;;;;;;;;;;22.90;51.30;;;;;;5072275;28;19999;-28
2023/06/27 11:03:56;;;;;;;;;;;22.90;51.20;;;;;;5072206;28;19938;-27
2023/06/27 11:06:42;;;;;;;;;;;22.90;50.60;;;;;;5055539;28;19916;-28
2023/06/27 11:09:12;;;;;;;;;;;22.90;50.60;;;;;;5071439;28;20425;-28
2023/06/27 11:11:38;;;;;;;;;;;22.90;51.00;;;;;;5072154;28;19913;-27
2023/06/27 11:14:05;;;;;;;;;;;22.90;50.80;;;;;;5072047;28;20422;-27
2023/06/27 11:16:31;;;;;;;;;;;23.00;50.70;;;;;;5072491;28;19951;-29
2023/06/27 11:18:57;;;;;;;;;;;23.10;50.60;;;;;;5072268;28;19917;-30
2023/06/27 11:21:22;;;;;;;;;;;23.20;49.90;;;;;;5054264;28;19919;-33
2023/06/27 11:23:49;;;;;;;;;;;23.20;49.40;;;;;;5054246;28;19913;-28
2023/06/27 11:26:14;;;;;;;;;;;23.20;49.50;;;;;;5071914;28;19999;-30
2023/06/27 11:28:40;;;;;;;;;;;23.20;48.80;;;;;;5071723;28;19997;-29
2023/06/27 11:31:05;;;;;;;;;;;23.20;48.30;;;;;;5071932;28;19912;-32
2023/06/27 11:33:31;;;;;;;;;;;23.20;48.50;;;;;;5072197;28;19923;-28
2023/06/27 11:35:58;;;;;;;;;;;23.20;48.50;;;;;;5071970;28;20368;-30
2023/06/27 11:38:25;;;;;;;;;;;23.30;48.80;;;;;;5072152;28;19934;-28
2023/06/27 11:40:51;;;;;;;;;;;23.40;48.50;;;;;;5072007;28;19939;-27
2023/06/27 11:43:18;;;;;;;;;;;23.40;48.30;;;;;;5071683;28;19909;-28
2023/06/27 11:45:51;;;;;;;;;;;23.50;48.40;;;;;;5053831;28;19915;-36
2023/06/27 11:48:17;;;;;;;;;;;23.60;48.10;;;;;;5071738;28;19920;-31
2023/06/27 11:50:56;;;;;;;;;;;23.60;47.60;;;;;;5071997;28;19930;-28
2023/06/27 11:53:26;;;;;;;;;;;23.70;47.50;;;;;;5075688;28;19917;-32
2023/06/27 11:55:52;;;;;;;;;;;23.80;47.60;;;;;;5075615;28;19909;-30
2023/06/27 11:58:25;;;;;;;;;;;23.90;47.50;;;;;;5075572;28;19915;-28
2023/06/27 12:00:51;;;;;;;;;;;24.00;47.50;;;;;;5057587;28;19913;-27
2023/06/27 12:03:23;;;;;;;;;;;24.20;46.40;;;;;;5075667;28;19908;-30
2023/06/27 12:05:49;;;;;;;;;;;24.20;46.60;;;;;;5075386;28;20062;-31
2023/06/27 12:08:17;;;;;;;;;;;24.20;46.20;;;;;;5075715;28;20400;-30
2023/06/27 12:10:52;;;;;;;;;;;24.10;46.40;;;;;;5075452;28;19948;-28
2023/06/27 12:13:19;;;;;;;;;;;24.10;46.60;;;;;;5075224;28;20374;-31
2023/06/27 12:15:47;;;;;;;;;;;24.10;46.30;;;;;;5075472;28;20284;-31
2023/06/27 12:18:27;;;;;;;;;;;24.30;46.60;;;;;;5075242;28;19908;-33
2023/06/27 12:20:53;;;;;;;;;;;24.40;45.80;;;;;;5075400;28;20439;-33
2023/06/27 12:23:19;;;;;;;;;;;24.50;46.20;;;;;;5075234;28;19993;-29
2023/06/27 12:25:44;;;;;;;;;;;24.70;46.20;;;;;;5075129;28;20012;-29
2023/06/27 12:28:10;;;;;;;;;;;24.70;46.40;;;;;;5074874;28;19921;-32
2023/06/27 12:30:36;;;;;;;;;;;24.90;46.40;;;;;;5074879;28;19916;-31
2023/06/27 12:33:01;;;;;;;;;;;24.90;46.30;;;;;;5056918;28;19913;-28
2023/06/27 12:35:27;;;;;;;;;;;25.00;46.00;;;;;;5074763;28;19909;-29
2023/06/27 12:37:52;;;;;;;;;;;25.10;45.50;;;;;;5075020;28;19996;-29
2023/06/27 12:40:20;;;;;;;;;;;25.10;45.50;;;;;;5074554;28;19915;-30
2023/06/27 12:42:45;;;;;;;;;;;25.10;45.30;;;;;;5074647;28;20386;-31
2023/06/27 12:45:11;;;;;;;;;;;25.10;45.30;;;;;;5074935;28;20090;-28
2023/06/27 12:47:44;;;;;;;;;;;25.00;45.20;;;;;;5074622;28;20338;-29
2023/06/27 12:50:13;;;;;;;;;;;24.80;45.00;;;;;;5056502;28;19915;-29
2023/06/27 12:52:38;;;;;;;;;;;24.60;45.30;;;;;;5074501;28;19958;-29
2023/06/27 12:55:04;;;;;;;;;;;24.60;45.60;;;;;;5074773;28;20351;-31
2023/06/27 12:57:30;;;;;;;;;;;24.60;44.50;;;;;;5074904;28;20423;-29
2023/06/27 12:59:55;;;;;;;;;;;24.60;44.90;;;;;;5074501;28;19987;-29
2023/06/27 13:02:21;;;;;;;;;;;24.60;45.10;;;;;;5074007;28;20272;-28
2023/06/27 13:04:47;;;;;;;;;;;24.70;45.40;;;;;;5074310;28;19985;-28
2023/06/27 13:07:13;;;;;;;;;;;24.80;45.60;;;;;;5074689;28;19971;-30
2023/06/27 13:09:39;;;;;;;;;;;24.80;45.50;;;;;;5074102;28;20017;-27
2023/06/27 13:12:06;;;;;;;;;;;24.80;45.70;;;;;;5074425;28;19993;-29
2023/06/27 13:14:31;;;;;;;;;;;24.80;45.80;;;;;;5074162;28;20402;-30
2023/06/27 13:16:57;;;;;;;;;;;24.80;45.90;;;;;;5074205;28;19909;-30
2023/06/27 13:19:23;;;;;;;;;;;24.80;45.90;;;;;;5074489;28;19909;-29
2023/06/27 13:21:50;;;;;;;;;;;24.80;45.80;;;;;;5074375;28;19945;-29
2023/06/27 13:24:15;;;;;;;;;;;24.80;45.70;;;;;;5074406;28;19939;-33
2023/06/27 13:26:41;;;;;;;;;;;24.80;44.80;;;;;;5073876;28;19924;-31
2023/06/27 13:29:07;;;;;;;;;;;24.70;45.20;;;;;;5073982;28;20433;-31
2023/06/27 13:31:32;;;;;;;;;;;24.70;45.50;;;;;;5073995;28;20253;-30
2023/06/27 13:33:58;;;;;;;;;;;24.70;45.10;;;;;;5073818;28;19919;-28
2023/06/27 13:36:23;;;;;;;;;;;24.70;44.90;;;;;;5056045;28;20021;-29
2023/06/27 13:38:49;;;;;;;;;;;24.80;45.20;;;;;;5073667;28;19908;-29
2023/06/27 13:41:14;;;;;;;;;;;24.80;45.10;;;;;;5073643;28;20100;-29
2023/06/27 13:43:40;;;;;;;;;;;24.90;44.10;;;;;;5073570;28;19908;-29
2023/06/27 13:46:06;;;;;;;;;;;24.80;44.10;;;;;;5073731;28;19915;-28
2023/06/27 13:48:31;;;;;;;;;;;24.70;44.10;;;;;;5073473;28;19908;-28
2023/06/27 13:50:57;;;;;;;;;;;24.60;44.00;;;;;;5073756;28;19908;-33
2023/06/27 13:53:23;;;;;;;;;;;24.50;44.50;;;;;;5073250;28;20315;-29
2023/06/27 13:55:48;;;;;;;;;;;24.50;44.60;;;;;;5073657;28;19908;-28
2023/06/27 13:58:14;;;;;;;;;;;24.40;45.00;;;;;;5073265;28;19915;-28
2023/06/27 14:00:40;;;;;;;;;;;24.30;45.30;;;;;;5073287;28;19909;-29
2023/06/27 14:03:06;;;;;;;;;;;24.30;46.50;;;;;;5073017;28;19909;-33
2023/06/27 14:05:32;;;;;;;;;;;24.20;46.10;;;;;;5073110;28;19915;-28
2023/06/27 14:07:57;;;;;;;;;;;24.30;46.30;;;;;;5072968;28;19992;-31
2023/06/27 14:10:23;;;;;;;;;;;24.30;46.30;;;;;;5073076;28;19936;-28
2023/06/27 14:12:49;;;;;;;;;;;24.40;46.50;;;;;;5073127;28;20002;-28